Latest Weather Observations for Curtin

IDW60801

Issued at 3:02 pm WST Saturday 23 May 2015 (issued every 30 minutes, with the page automatically refreshed every 10 minutes)

About weather observations | Map of weather stations | Latest weather observations for WA | Other Formats
Station Details ID: 003080 Name: CURTIN AERO Lat: -17.58 Lon: 123.83 Height: 77.5 m
Data from the previous 72 hours. | See also: Recent months at Curtin
Date/Time
WST
Temp
°C
App
Temp
°C
Dew
Point
Rel
Hum
%
Delta-T
°C
Wind Press
QNH
hPa
Press
MSL
hPa
Rain
since 9 am
mm
Dir
 
Spd
km/h
Gust
km/h
Spd
kts
Gust
kts
23/03:00pm 33.2 33.3 17.4 39 10.1 WNW 13 20 7 11 1012.2 1011.8 0.0
23/02:30pm 33.5 33.5 18.0 39 10.0 NW 15 20 8 11 1012.1 1011.7 0.0
23/02:00pm 33.4 33.4 16.3 36 10.8 NW 11 15 6 8 1012.4 1012.0 0.0
23/01:30pm 33.3 32.9 16.2 36 10.8 NNW 13 19 7 10 1012.6 1012.2 0.0
23/01:00pm 33.7 33.6 17.0 37 10.7 NW 13 20 7 11 1013.0 1012.6 0.0
23/12:30pm 33.2 33.1 17.0 38 10.3 N 13 20 7 11 1013.6 1013.2 0.0
23/12:00pm 32.6 32.8 17.6 40 9.6 NNE 13 26 7 14 1014.0 1013.6 0.0
23/11:30am 30.9 31.3 17.2 43 8.7 NNW 11 17 6 9 1014.4 1014.0 0.0
23/11:00am 32.3 32.7 18.1 42 9.2 N 13 24 7 13 1014.7 1014.2 0.0
23/10:30am 31.2 32.2 20.2 52 7.3 N 15 20 8 11 1015.2 1014.7 0.0
23/10:00am 30.9 32.3 21.1 56 6.6 N 15 22 8 12 1015.6 1015.1 0.0
23/09:30am 29.9 31.0 20.5 57 6.2 N 15 20 8 11 1016.0 1015.5 0.0
23/09:00am 28.5 29.9 21.8 67 4.5 N 17 24 9 13 1016.1 1015.6 0.0
23/08:30am 28.0 30.4 21.5 67 4.4 N 11 19 6 10 1016.2 1015.7 0.0
23/08:00am 25.5 28.4 21.0 76 3.0 N 7 11 4 6 1016.0 1015.5 0.0
23/07:30am 23.4 24.4 17.8 71 3.5 NNE 9 11 5 6 1015.9 1015.4 0.0
23/07:00am 22.0 22.2 14.6 63 4.4 NNE 7 11 4 6 1015.8 1015.3 0.0
23/06:30am 21.2 20.3 12.6 58 4.9 NE 9 11 5 6 1015.4 1014.9 0.0
23/06:00am 20.3 19.6 12.0 59 4.6 NE 7 9 4 5 1015.0 1014.5 0.0
23/05:30am 20.3 19.1 11.5 57 4.9 NE 9 11 5 6 1014.9 1014.4 0.0
23/05:00am 19.8 18.5 11.3 58 4.7 NNE 9 11 5 6 1014.5 1014.1 0.0
23/04:30am 20.2 19.4 11.7 58 4.7 NNE 7 9 4 5 1014.2 1013.8 0.0
23/04:00am 21.0 20.4 11.6 55 5.2 E 6 7 3 4 1014.1 1013.7 0.0
23/03:30am 22.5 20.9 10.3 46 6.7 SE 9 11 5 6 1013.9 1013.5 0.0
23/03:00am 22.4 21.1 11.2 49 6.2 SE 9 13 5 7 1013.8 1013.4 0.0
23/02:30am 21.8 20.8 12.4 55 5.3 SE 9 11 5 6 1014.0 1013.6 0.0
23/02:00am 19.7 19.6 14.9 74 2.8 SE 9 11 5 6 1014.2 1013.8 0.0
23/01:30am 19.8 21.5 15.2 75 2.7 CALM 0 0 0 0 1014.0 1013.6 0.0
23/01:00am 20.8 21.8 15.4 71 3.2 S 4 6 2 3 1014.2 1013.8 0.0
23/12:30am 22.5 23.4 16.5 69 3.7 SSW 7 9 4 5 1014.7 1014.2 0.0
23/12:00am 22.3 23.5 15.9 67 3.9 SW 4 7 2 4 1014.8 1014.3 0.0
 
Date/Time
WST
Temp
°C
App
Temp
°C
Dew
Point
Rel
Hum
%
Delta-T
°C
Wind Press
QNH
hPa
Press
MSL
hPa
Rain
since 9 am
mm
Dir
 
Spd
km/h
Gust
km/h
Spd
kts
Gust
kts
22/11:30pm 23.1 25.2 16.2 65 4.2 CALM 0 0 0 0 1014.9 1014.4 0.0
22/11:00pm 22.7 24.7 16.0 66 4.1 CALM 0 0 0 0 1014.9 1014.4 0.0
22/10:30pm 24.5 25.6 17.0 63 4.6 SSW 7 7 4 4 1015.0 1014.5 0.0
22/10:00pm 25.7 26.5 16.3 56 5.8 WSW 7 9 4 5 1015.1 1014.6 0.0
22/09:30pm 25.6 26.2 15.9 55 5.9 SSW 7 11 4 6 1015.1 1014.6 0.0
22/09:00pm 25.6 27.1 15.6 54 6.1 SSW 2 6 1 3 1015.2 1014.7 0.0
22/08:30pm 26.2 26.2 16.2 54 6.2 S 11 15 6 8 1015.1 1014.6 0.0
22/08:00pm 25.9 25.2 14.4 49 6.9 S 11 20 6 11 1014.9 1014.4 0.0
22/07:30pm 25.9 25.5 12.4 43 7.8 NW 6 7 3 4 1014.5 1014.1 0.0
22/07:00pm 26.8 25.7 12.1 40 8.5 NW 9 11 5 6 1014.2 1013.8 0.0
22/06:30pm 27.5 26.2 11.1 36 9.4 NNW 9 13 5 7 1013.8 1013.4 0.0
22/06:00pm 28.5 26.9 11.6 35 9.8 NW 11 15 6 8 1013.5 1013.1 0.0
22/05:30pm 29.7 28.8 12.6 35 10.1 WNW 9 11 5 6 1013.2 1012.8 0.0
22/05:00pm 31.5 30.7 12.8 32 11.2 NW 9 13 5 7 1012.8 1012.4 0.0
22/04:30pm 32.9 31.2 12.5 29 12.2 NW 13 19 7 10 1012.4 1012.0 0.0
22/04:00pm 34.0 31.9 12.4 27 12.9 NNW 15 22 8 12 1012.3 1011.9 0.0
22/03:30pm 34.4 32.2 12.1 26 13.3 NNW 15 26 8 14 1012.0 1011.6 0.0
22/03:00pm 34.5 33.1 11.0 24 13.8 NE 9 13 5 7 1011.9 1011.5 0.0
22/02:30pm 35.8 34.4 10.8 22 14.7 N 9 17 5 9 1012.1 1011.7 0.0
22/02:00pm 36.1 34.3 11.0 22 14.9 NNE 11 24 6 13 1012.1 1011.7 0.0
22/01:30pm 35.2 33.8 10.9 23 14.3 NE 9 20 5 11 1012.4 1012.0 0.0
22/01:00pm 35.4 33.3 11.1 23 14.4 NE 13 20 7 11 1012.8 1012.4 0.0
22/12:30pm 34.4 32.1 10.3 23 14.0 NE 13 19 7 10 1013.3 1012.9 0.0
22/12:00pm 33.9 31.6 10.5 24 13.6 ENE 13 22 7 12 1013.9 1013.5 0.0
22/11:30am 33.5 31.5 11.4 26 13.0 ENE 13 22 7 12 1014.2 1013.8 0.0
22/11:00am 32.2 29.2 10.8 27 12.4 E 17 24 9 13 1014.7 1014.2 0.0
22/10:30am 31.0 28.2 11.4 30 11.4 E 17 24 9 13 1015.1 1014.6 0.0
22/10:00am 29.7 26.7 10.8 31 10.8 E 17 24 9 13 1015.6 1015.1 0.0
22/09:30am 28.8 26.1 10.5 32 10.4 SE 15 24 8 13 1016.0 1015.5 0.0
22/09:00am 27.5 24.4 10.2 34 9.7 SE 17 24 9 13 1016.2 1015.7 0.0
22/08:30am 26.4 23.2 10.1 36 9.1 SE 17 20 9 11 1015.9 1015.4 0.0
22/08:00am 24.5 21.2 9.6 39 8.2 SE 17 24 9 13 1015.7 1015.2 0.0
22/07:30am 23.1 19.2 8.8 40 7.7 SE 19 26 10 14 1015.5 1015.0 0.0
22/07:00am 21.9 18.3 8.4 42 7.1 SSE 17 22 9 12 1015.1 1014.6 0.0
22/06:30am 20.6 17.2 7.6 43 6.7 SE 15 20 8 11 1014.9 1014.4 0.0
22/06:00am 20.6 17.5 7.2 42 6.9 SSE 13 19 7 10 1014.7 1014.2 0.0
22/05:30am 22.1 18.6 7.1 38 7.7 ESE 15 24 8 13 1014.1 1013.7 0.0
22/05:00am 23.1 18.9 7.6 37 8.1 ESE 19 28 10 15 1013.6 1013.2 0.0
22/04:30am 22.8 18.5 7.0 36 8.2 ESE 19 28 10 15 1013.7 1013.3 0.0
22/04:00am 22.5 18.5 6.7 36 8.1 SE 17 24 9 13 1013.8 1013.4 0.0
22/03:30am 22.8 19.2 6.6 35 8.3 SE 15 24 8 13 1013.7 1013.3 0.0
22/03:00am 22.9 19.4 7.0 36 8.2 SE 15 20 8 11 1013.7 1013.3 0.0
22/02:30am 21.5 18.9 7.7 41 7.2 SE 11 17 6 9 1013.7 1013.3 0.0
22/02:00am 21.3 17.7 8.2 43 6.9 SSE 17 19 9 10 1014.1 1013.7 0.0
22/01:30am 21.3 18.4 8.2 43 6.9 SSE 13 15 7 8 1014.2 1013.8 0.0
22/01:00am 22.3 19.0 8.1 40 7.5 S 15 17 8 9 1014.2 1013.8 0.0
22/12:30am 23.1 19.8 8.0 38 8.0 SSE 15 19 8 10 1014.3 1013.9 0.0
22/12:00am 22.4 19.1 8.1 40 7.5 S 15 15 8 8 1014.7 1014.2 0.0
 
Date/Time
WST
Temp
°C
App
Temp
°C
Dew
Point
Rel
Hum
%
Delta-T
°C
Wind Press
QNH
hPa
Press
MSL
hPa
Rain
since 9 am
mm
Dir
 
Spd
km/h
Gust
km/h
Spd
kts
Gust
kts
21/11:30pm 23.0 19.7 7.9 38 8.0 S 15 17 8 9 1014.8 1014.3 0.0
21/11:00pm 23.2 19.8 7.7 37 8.1 S 15 15 8 8 1014.9 1014.4 0.0
21/10:30pm 23.9 21.3 7.9 36 8.5 SSE 11 11 6 6 1014.9 1014.4 0.0
21/10:00pm 24.5 22.0 8.0 35 8.8 SSE 11 11 6 6 1014.8 1014.3 0.0
21/09:30pm 24.0 21.5 8.4 37 8.3 SSE 11 13 6 7 1015.0 1014.5 0.0
21/09:00pm 24.4 22.3 8.4 36 8.6 SSE 9 11 5 6 1015.1 1014.6 0.0
21/08:30pm 24.8 22.4 8.7 36 8.7 SSE 11 11 6 6 1015.3 1014.8 0.0
21/08:00pm 25.1 23.2 9.0 36 8.8 SSE 9 11 5 6 1015.3 1014.8 0.0
21/07:30pm 25.6 23.8 9.4 36 8.9 SSE 9 11 5 6 1015.1 1014.6 0.0
21/07:00pm 25.6 23.7 9.0 35 9.0 SSE 9 11 5 6 1014.8 1014.3 0.0
21/06:30pm 25.8 23.9 9.2 35 9.1 SSE 9 11 5 6 1014.5 1014.1 0.0
21/06:00pm 26.0 24.4 8.9 34 9.3 SSE 7 9 4 5 1014.4 1014.0 0.0
21/05:30pm 28.5 26.6 9.2 30 10.7 SSE 9 11 5 6 1014.0 1013.6 0.0
21/05:00pm 31.0 29.5 9.3 26 12.2 SE 7 9 4 5 1013.7 1013.3 0.0
21/04:30pm 32.8 31.1 8.3 22 13.7 ESE 7 11 4 6 1013.3 1012.9 0.0
21/04:00pm 33.7 30.9 6.9 19 14.7 E 11 15 6 8 1013.0 1012.6 0.0
21/03:30pm 34.3 32.2 8.1 20 14.7 E 9 17 5 9 1012.8 1012.4 0.0
21/03:00pm 34.0 30.9 7.1 19 14.8 E 13 20 7 11 1012.8 1012.4 0.0
21/02:30pm 34.6 31.6 7.6 19 15.1 ESE 13 20 7 11 1012.9 1012.5 0.0
21/02:00pm 34.9 31.9 7.9 19 15.2 ESE 13 19 7 10 1013.1 1012.7 0.0
21/01:30pm 34.2 30.9 6.5 18 15.2 ESE 13 19 7 10 1013.2 1012.8 0.0
21/01:00pm 34.4 31.0 7.5 19 15.0 ESE 15 22 8 12 1013.6 1013.2 0.0
21/12:30pm 33.8 30.1 6.2 18 15.0 SE 15 22 8 12 1014.0 1013.6 0.0
21/12:00pm 33.5 30.5 7.5 20 14.4 ESE 13 19 7 10 1014.8 1014.3 0.0
21/11:30am 32.6 29.1 7.4 21 13.9 ESE 15 22 8 12 1015.3 1014.8 0.0
21/11:00am 31.8 27.8 6.8 21 13.6 SE 17 24 9 13 1015.9 1015.4 0.0
21/10:30am 31.4 27.9 7.1 22 13.2 ESE 15 22 8 12 1016.1 1015.6 0.0
21/10:00am 30.2 25.9 6.8 23 12.6 E 19 26 10 14 1016.5 1016.0 0.0
21/09:30am 29.7 25.9 7.6 25 12.0 ESE 17 30 9 16 1016.6 1016.1 0.0
21/09:00am 27.7 23.3 7.5 28 10.8 E 20 28 11 15 1016.6 1016.1 0.0
21/08:30am 26.9 22.0 6.9 28 10.6 ESE 22 32 12 17 1016.6 1016.1 0.0
21/08:00am 25.4 21.0 6.6 30 9.8 ESE 19 30 10 16 1016.6 1016.1 0.0
21/07:30am 23.8 19.5 7.0 34 8.8 ESE 19 28 10 15 1016.4 1015.9 0.0
21/07:00am 22.4 18.6 7.4 38 7.8 ESE 17 28 9 15 1016.1 1015.6 0.0
21/06:30am 21.9 18.2 8.1 41 7.3 ESE 17 24 9 13 1015.7 1015.2 0.0
21/06:00am 21.7 18.6 8.9 44 6.8 SE 15 24 8 13 1015.5 1015.0 0.0
21/05:30am 20.1 18.9 11.6 58 4.7 SSE 9 11 5 6 1015.3 1014.8 0.0
21/05:00am 21.0 19.2 12.2 57 5.0 SSE 13 15 7 8 1015.1 1014.6 0.0
21/04:30am 20.8 20.0 12.8 60 4.6 SSE 9 13 5 7 1014.7 1014.2 0.0
21/04:00am 20.8 19.8 13.5 63 4.2 SSE 11 13 6 7 1014.5 1014.1 0.0
21/03:30am 20.1 19.2 13.8 67 3.6 S 11 13 6 7 1014.7 1014.2 0.0
21/03:00am 20.1 19.2 13.8 67 3.6 S 11 13 6 7 1014.5 1014.1 0.0
21/02:30am 20.0 19.5 13.7 67 3.6 SSW 9 11 5 6 1014.8 1014.3 0.0
21/02:00am 19.8 19.5 13.3 66 3.7 S 7 9 4 5 1014.8 1014.3 0.0
21/01:30am 20.3 20.1 13.5 65 3.9 S 7 9 4 5 1014.8 1014.3 0.0
21/01:00am 20.2 19.9 13.2 64 4.0 SSW 7 7 4 4 1015.0 1014.5 0.0
21/12:30am 20.7 20.3 12.9 61 4.4 S 7 7 4 4 1015.2 1014.7 0.0
21/12:00am 21.5 20.8 13.2 59 4.8 S 9 11 5 6 1015.3 1014.8 0.0
 
Date/Time
WST
Temp
°C
App
Temp
°C
Dew
Point
Rel
Hum
%
Delta-T
°C
Wind Press
QNH
hPa
Press
MSL
hPa
Rain
since 9 am
mm
Dir
 
Spd
km/h
Gust
km/h
Spd
kts
Gust
kts
20/11:30pm 22.0 20.9 13.1 57 5.1 S 11 13 6 7 1015.6 1015.1 0.0
20/11:00pm 22.7 21.6 13.2 55 5.5 SW 11 13 6 7 1015.8 1015.3 0.0
20/10:30pm 23.8 22.4 13.4 52 6.1 SW 13 17 7 9 1016.1 1015.6 0.0
20/10:00pm 24.0 22.8 12.9 50 6.4 WSW 11 15 6 8 1016.1 1015.6 0.0
20/09:30pm 24.5 23.6 12.5 47 6.9 W 9 13 5 7 1016.0 1015.5 0.0
20/09:00pm 22.9 22.0 12.5 52 5.9 SSE 9 11 5 6 1015.8 1015.3 0.0
20/08:30pm 22.2 21.5 11.9 52 5.8 SSE 7 9 4 5 1015.8 1015.3 0.0
20/08:00pm 22.8 21.6 11.5 49 6.3 SSE 9 9 5 5 1015.8 1015.3 0.0
20/07:30pm 24.4 23.5 12.7 48 6.8 SSE 9 11 5 6 1015.5 1015.0 0.0
20/07:00pm 25.1 24.2 12.7 46 7.2 S 9 11 5 6 1015.2 1014.7 0.0
20/06:30pm 24.5 23.8 12.1 46 7.1 SSE 7 9 4 5 1014.7 1014.2 0.0
20/06:00pm 25.3 24.8 12.5 45 7.4 SE 7 9 4 5 1014.2 1013.8 0.0
20/05:30pm 26.7 26.2 12.7 42 8.2 ESE 7 7 4 4 1013.8 1013.4 0.0
20/05:00pm 30.1 29.8 13.4 36 10.0 E 7 9 4 5 1013.6 1013.2 0.0
20/04:30pm 32.3 31.8 12.5 30 11.8 E 7 11 4 6 1013.2 1012.8 0.0
20/04:00pm 33.3 32.5 11.8 27 12.7 E 7 11 4 6 1012.9 1012.5 0.0
20/03:30pm 33.5 32.6 11.4 26 13.0 S 7 13 4 7 1012.8 1012.4 0.0

Other Formats:

Comma delimited format used in spreadsheet applications
http://www.bom.gov.au/fwo/IDW60801/IDW60801.94204.axf

JavaScript Object Notation format (JSON) in row-major order
http://www.bom.gov.au/fwo/IDW60801/IDW60801.94204.json